Time;durP1;ratioP1;P1;durP2;ratioP2;P2;SDS_P1;SDS_P2;PMS_P1;PMS_P2;Temp;Humidity;BMP_temperature;BMP_pressure;BME280_temperature;BME280_humidity;BME280_pressure;Samples;Min_cycle;Max_cycle;Signal;HPM_P1;HPM_P2
2023/08/05 00:02:29;;;;;;;4.97;4.37;;;;;;;11.89;100.00;95643.94;7396801;19;20428;-93
2023/08/05 00:05:10;;;;;;;4.90;4.50;;;;;;;11.98;100.00;95668.31;7401159;19;20384;-92
2023/08/05 00:07:38;;;;;;;5.17;4.33;;;;;;;11.73;100.00;95628.84;7400846;19;20405;-93
2023/08/05 00:10:11;;;;;;;5.73;5.23;;;;;;;13.69;100.00;95897.50;7395507;19;20401;-92
2023/08/05 00:12:46;;;;;;;7.20;5.40;;;;;;;12.86;100.00;95780.47;7400239;19;20427;-92
2023/08/05 00:15:17;;;;;;;5.70;5.20;;;;;;;11.34;100.00;95545.28;7399013;19;20912;-92
2023/08/05 00:17:45;;;;;;;6.17;5.67;;;;;;;11.54;100.00;95571.41;7400913;19;20377;-93
2023/08/05 00:20:13;;;;;;;6.00;5.50;;;;;;;12.06;100.00;95672.63;7397975;19;20460;-92
2023/08/05 00:22:40;;;;;;;6.30;5.70;;;;;;;11.97;100.00;95669.44;7398635;19;20425;-93
2023/08/05 00:25:08;;;;;;;5.97;5.37;;;;;;;11.76;100.00;95645.97;7398154;19;20369;-92
2023/08/05 00:27:35;;;;;;;5.87;5.37;;;;;;;12.23;100.00;95738.44;7420038;19;20421;-91
2023/08/05 00:30:03;;;;;;;5.90;5.40;;;;;;;11.60;100.00;95630.13;7430419;19;20412;-92
2023/08/05 00:32:30;;;;;;;5.70;5.20;;;;;;;11.36;100.00;95607.38;7432116;19;20433;-91
2023/08/05 00:34:57;;;;;;;5.80;5.30;;;;;;;12.63;100.00;95774.38;7417845;19;20404;-92
2023/08/05 00:37:25;;;;;;;6.80;6.27;;;;;;;11.44;100.00;95606.38;7395780;19;20369;-92
2023/08/05 00:39:53;;;;;;;6.50;6.00;;;;;;;12.13;100.00;95709.84;7394622;19;20376;-92
2023/08/05 00:42:21;;;;;;;6.57;5.93;;;;;;;11.16;100.00;95556.31;7398113;19;20411;-92
2023/08/05 00:44:48;;;;;;;7.20;6.47;;;;;;;11.87;100.00;95688.53;7396923;19;20384;-92
2023/08/05 00:47:26;;;;;;;8.17;6.13;;;;;;;11.84;100.00;95674.13;7399304;19;20394;-92
2023/08/05 00:49:58;;;;;;;5.93;5.33;;;;;;;11.55;100.00;95635.72;7393425;19;20392;-92
2023/08/05 00:52:26;;;;;;;6.60;6.10;;;;;;;10.94;100.00;95559.63;7396586;19;20420;-92
2023/08/05 00:54:54;;;;;;;6.37;5.80;;;;;;;12.40;100.00;95772.44;7399345;19;20387;-92
2023/08/05 00:57:43;;;;;;;7.07;6.37;;;;;;;12.64;100.00;95813.03;7397312;19;20743;-92
2023/08/05 01:00:10;;;;;;;6.33;5.73;;;;;;;12.43;100.00;95773.66;7394790;19;20361;-92
2023/08/05 01:02:37;;;;;;;6.70;6.00;;;;;;;12.40;100.00;95772.44;7397590;19;20433;-92
2023/08/05 01:05:05;;;;;;;5.90;5.40;;;;;;;11.84;100.00;95688.13;7409996;19;20385;-92
2023/08/05 01:07:34;;;;;;;7.83;6.80;;;;;;;12.73;100.00;95838.22;7406007;19;20376;-92
2023/08/05 01:10:01;;;;;;;6.53;5.93;;;;;;;11.10;100.00;95578.88;7411331;19;20397;-93
2023/08/05 01:12:28;;;;;;;6.60;6.00;;;;;;;11.40;100.00;95620.66;7399457;19;20959;-92
2023/08/05 01:14:55;;;;;;;6.60;6.00;;;;;;;11.33;100.00;95615.22;7395494;19;20381;-93
2023/08/05 01:17:22;;;;;;;8.43;6.30;;;;;;;10.78;100.00;95549.13;7394711;19;20389;-92
2023/08/05 01:19:50;;;;;;;7.73;7.13;;;;;;;11.73;100.00;95692.41;7396439;19;20389;-93
2023/08/05 01:22:29;;;;;;;6.67;6.00;;;;;;;11.91;100.00;95703.41;7393356;19;20400;-92
2023/08/05 01:25:26;;;;;;;7.40;6.70;;;;;;;11.94;100.00;95699.28;7395866;19;20384;-93
2023/08/05 01:27:55;;;;;;;7.43;6.53;;;;;;;11.83;100.00;95683.94;7394701;19;20406;-92
2023/08/05 01:30:24;;;;;;;7.97;6.33;;;;;;;12.12;100.00;95717.03;7395579;19;20472;-93
2023/08/05 01:32:53;;;;;;;6.60;5.90;;;;;;;12.21;100.00;95739.91;7392564;19;20408;-93
2023/08/05 01:35:22;;;;;;;6.63;6.03;;;;;;;12.22;100.00;95752.81;7398305;19;20383;-93
2023/08/05 01:37:50;;;;;;;6.17;5.70;;;;;;;11.82;100.00;95685.06;7394221;19;20373;-93
2023/08/05 01:40:24;;;;;;;6.83;5.13;;;;;;;12.12;100.00;95730.28;7397025;19;20731;-93
2023/08/05 01:42:52;;;;;;;8.40;5.47;;;;;;;12.03;100.00;95735.06;7391973;19;20392;-92
2023/08/05 01:45:19;;;;;;;7.10;5.67;;;;;;;12.10;100.00;95745.00;7396883;19;20369;-93
2023/08/05 01:47:49;;;;;;;7.30;5.20;;;;;;;12.08;100.00;95737.41;7395923;19;20396;-92
2023/08/05 01:50:16;;;;;;;6.23;5.73;;;;;;;11.71;100.00;95707.88;7395536;19;20389;-93
2023/08/05 01:52:44;;;;;;;9.63;5.80;;;;;;;11.37;100.00;95643.31;7393954;19;20500;-93
2023/08/05 01:55:11;;;;;;;7.53;5.30;;;;;;;11.16;100.00;95625.09;7398902;19;20365;-92
2023/08/05 01:57:38;;;;;;;7.60;5.90;;;;;;;11.93;100.00;95737.50;7397812;19;20380;-93
2023/08/05 02:00:06;;;;;;;6.57;5.97;;;;;;;11.49;100.00;95669.66;7398159;19;20943;-93
2023/08/05 02:02:39;;;;;;;6.20;5.60;;;;;;;11.41;100.00;95659.25;7395497;19;20975;-93
2023/08/05 02:05:10;;;;;;;7.83;6.50;;;;;;;10.93;100.00;95603.84;7399157;19;20353;-92
2023/08/05 02:07:54;;;;;;;6.93;6.33;;;;;;;10.31;100.00;95515.66;7394653;19;20430;-92
2023/08/05 02:10:30;;;;;;;7.23;6.73;;;;;;;10.81;100.00;95579.38;7397146;19;20416;-92
2023/08/05 02:13:05;;;;;;;7.60;7.00;;;;;;;11.41;100.00;95683.84;7401219;19;20483;-92
2023/08/05 02:15:38;;;;;;;7.87;6.97;;;;;;;10.85;100.00;95596.09;7401600;19;20401;-92
2023/08/05 02:18:10;;;;;;;6.83;6.13;;;;;;;11.20;100.00;95649.75;7400133;19;20368;-92
2023/08/05 02:20:39;;;;;;;7.37;6.37;;;;;;;11.47;100.00;95676.38;7402283;19;20392;-92
2023/08/05 02:23:11;;;;;;;8.60;7.80;;;;;;;11.37;100.00;95674.31;7397868;19;20428;-92
2023/08/05 02:25:39;;;;;;;7.00;6.30;;;;;;;11.16;100.00;95626.97;7402338;19;20987;-92
2023/08/05 02:28:15;;;;;;;7.30;6.60;;;;;;;11.15;100.00;95626.22;7401767;19;20359;-92
2023/08/05 02:30:47;;;;;;;8.27;6.80;;;;;;;11.18;100.00;95624.75;7400565;19;20501;-92
2023/08/05 02:33:35;;;;;;;9.87;7.20;;;;;;;12.50;100.00;95816.19;7401605;19;20474;-93
2023/08/05 02:36:21;;;;;;;6.20;5.70;;;;;;;11.66;100.00;95679.06;7400405;19;20388;-92
2023/08/05 02:42:40;;;;;;;6.53;5.93;;;;;;;11.30;100.00;95616.69;7400648;19;20417;-93
2023/08/05 02:45:23;;;;;;;5.23;4.83;;;;;;;10.33;100.00;95478.31;7402134;19;20388;-93
2023/08/05 02:48:05;;;;;;;4.73;4.07;;;;;;;10.70;100.00;95520.25;7401317;19;20384;-93
2023/08/05 02:50:44;;;;;;;6.63;4.80;;;;;;;10.64;100.00;95525.03;7400682;19;20403;-92
2023/08/05 02:53:18;;;;;;;5.10;3.97;;;;;;;10.41;100.00;95493.19;7398669;19;20747;-93
2023/08/05 02:55:58;;;;;;;5.50;4.40;;;;;;;11.63;100.00;95671.81;7398157;19;20372;-93
2023/08/05 02:58:28;;;;;;;5.17;4.77;;;;;;;11.74;100.00;95699.25;7402234;19;20385;-93
2023/08/05 03:01:24;;;;;;;4.90;4.50;;;;;;;10.48;100.00;95526.94;7400728;19;20390;-92
2023/08/05 03:03:59;;;;;;;6.00;4.20;;;;;;;10.30;100.00;95500.16;7401372;19;20365;-92
2023/08/05 03:06:49;;;;;;;5.60;4.73;;;;;;;11.21;100.00;95647.88;7399270;19;20384;-92
2023/08/05 03:09:19;;;;;;;4.80;4.40;;;;;;;11.79;100.00;95717.56;7400625;19;20508;-93
2023/08/05 03:11:50;;;;;;;4.97;4.57;;;;;;;11.20;100.00;95625.94;7398980;19;20401;-92
2023/08/05 03:14:25;;;;;;;4.73;4.23;;;;;;;10.93;100.00;95576.63;7401855;19;20402;-93
2023/08/05 03:16:59;;;;;;;6.73;4.00;;;;;;;10.53;100.00;95526.66;7399653;19;20920;-93
2023/08/05 03:19:35;;;;;;;5.70;5.20;;;;;;;11.28;100.00;95648.03;7402431;19;20376;-92
2023/08/05 03:22:06;;;;;;;5.87;4.80;;;;;;;11.53;100.00;95673.13;7398853;19;20412;-92
2023/08/05 03:24:40;;;;;;;6.47;4.47;;;;;;;11.10;100.00;95609.88;7399817;19;20401;-92
2023/08/05 03:27:11;;;;;;;6.10;4.60;;;;;;;11.24;100.00;95615.44;7403023;19;20395;-92
2023/08/05 03:29:41;;;;;;;4.57;4.17;;;;;;;10.50;100.00;95516.78;7400098;19;20626;-92
2023/08/05 03:32:10;;;;;;;5.37;4.97;;;;;;;12.71;100.00;95855.63;7399503;19;20420;-92
2023/08/05 03:34:52;;;;;;;4.40;4.00;;;;;;;11.61;100.00;95689.91;7399805;19;20447;-93
2023/08/05 03:37:19;;;;;;;4.60;4.20;;;;;;;12.42;100.00;95807.34;7401603;19;20401;-92
2023/08/05 03:39:48;;;;;;;4.43;4.03;;;;;;;10.50;100.00;95538.69;7399963;19;20384;-93
2023/08/05 03:42:15;;;;;;;4.80;4.40;;;;;;;10.72;100.00;95574.31;7402583;19;20508;-93
2023/08/05 03:44:42;;;;;;;4.37;3.97;;;;;;;11.58;100.00;95713.66;7403048;19;20392;-93
2023/08/05 03:47:10;;;;;;;5.07;4.67;;;;;;;10.45;100.00;95546.91;7398984;19;20389;-93
2023/08/05 03:49:39;;;;;;;5.40;3.93;;;;;;;12.41;100.00;95844.81;7413177;19;20376;-91
2023/08/05 03:52:10;;;;;;;5.53;4.00;;;;;;;11.88;100.00;95767.66;7433896;19;20460;-91
2023/08/05 03:54:37;;;;;;;5.03;4.07;;;;;;;11.65;100.00;95725.19;7433535;19;20389;-90
2023/08/05 03:57:11;;;;;;;4.80;4.30;;;;;;;10.77;100.00;95597.81;7432112;19;20389;-92
2023/08/05 03:59:40;;;;;;;7.43;4.20;;;;;;;11.69;100.00;95731.31;7433287;19;20356;-91
2023/08/05 04:02:14;;;;;;;4.30;3.90;;;;;;;11.16;100.00;95664.78;7430567;19;20428;-92
2023/08/05 04:05:10;;;;;;;5.57;5.00;;;;;;;11.61;100.00;95719.03;7428530;19;20383;-92
2023/08/05 04:07:47;;;;;;;6.43;4.03;;;;;;;11.71;100.00;95728.31;7426330;19;20378;-92
2023/08/05 04:10:26;;;;;;;4.93;4.43;;;;;;;11.57;100.00;95712.13;7403592;19;20360;-93
2023/08/05 04:12:57;;;;;;;4.63;4.20;;;;;;;10.53;100.00;95564.44;7394638;19;20472;-92
2023/08/05 04:15:30;;;;;;;5.00;4.60;;;;;;;10.45;100.00;95541.63;7395582;19;20406;-92
2023/08/05 04:18:00;;;;;;;5.13;4.70;;;;;;;10.41;100.00;95529.44;7399062;19;20376;-92
2023/08/05 04:20:31;;;;;;;5.63;5.10;;;;;;;10.90;100.00;95598.47;7397740;19;20720;-92
2023/08/05 04:23:10;;;;;;;8.07;5.30;;;;;;;10.54;100.00;95546.69;7394561;19;20487;-92
2023/08/05 04:25:41;;;;;;;5.70;4.60;;;;;;;10.26;100.00;95507.22;7398710;19;20379;-92
2023/08/05 04:28:11;;;;;;;7.13;5.47;;;;;;;11.25;100.00;95654.03;7396905;19;20381;-92
2023/08/05 04:30:48;;;;;;;5.67;4.83;;;;;;;11.72;100.00;95706.78;7398951;19;20455;-92
2023/08/05 04:33:25;;;;;;;5.13;4.73;;;;;;;10.57;100.00;95511.69;7393654;19;20972;-92
2023/08/05 04:35:59;;;;;;;5.60;4.10;;;;;;;10.61;100.00;95552.94;7399161;19;20385;-92
2023/08/05 04:38:29;;;;;;;4.83;4.43;;;;;;;11.30;100.00;95674.16;7397536;19;20384;-92
2023/08/05 04:41:00;;;;;;;8.20;5.77;;;;;;;11.61;100.00;95699.72;7396328;19;20466;-93
2023/08/05 04:43:32;;;;;;;5.40;4.90;;;;;;;10.88;100.00;95592.78;7397591;19;20928;-92
2023/08/05 04:46:11;;;;;;;5.20;4.70;;;;;;;11.13;100.00;95627.69;7396350;19;20916;-93
2023/08/05 04:49:12;;;;;;;4.90;4.50;;;;;;;12.87;100.00;95872.22;7399047;19;20404;-93
2023/08/05 04:52:50;;;;;;;4.97;4.47;;;;;;;11.88;100.00;95714.69;7408128;19;20436;-93
2023/08/05 04:55:39;;;;;;;4.67;4.27;;;;;;;11.38;100.00;95649.38;7418638;19;20389;-93
2023/08/05 04:58:14;;;;;;;5.47;4.80;;;;;;;10.65;100.00;95532.59;7401988;19;20385;-92
2023/08/05 05:00:43;;;;;;;4.43;4.03;;;;;;;11.19;100.00;95613.81;7397521;19;20833;-93
2023/08/05 05:03:51;;;;;;;;;;;;;;;;;;;;;
2023/08/05 05:06:52;;;;;;;4.70;4.23;;;;;;;11.94;100.00;95705.34;7403625;19;20384;-93
2023/08/05 05:09:43;;;;;;;6.13;4.50;;;;;;;11.92;100.00;95701.53;7401257;19;20412;-91
2023/08/05 05:12:10;;;;;;;4.83;4.33;;;;;;;11.13;100.00;95607.28;7401069;19;20433;-91
2023/08/05 05:14:46;;;;;;;7.10;4.60;;;;;;;11.13;100.00;95574.78;7417443;19;20389;-91
2023/08/05 05:17:15;;;;;;;4.40;4.00;;;;;;;12.29;100.00;95754.84;7428048;19;20399;-91
2023/08/05 05:19:43;;;;;;;4.87;4.47;;;;;;;11.51;100.00;95632.25;7407605;19;20417;-92
2023/08/05 05:22:18;;;;;;;4.83;4.43;;;;;;;12.34;100.00;95752.66;7400068;19;20825;-91
2023/08/05 05:24:45;;;;;;;4.70;4.30;;;;;;;11.61;100.00;95633.53;7399722;19;20395;-91
2023/08/05 05:27:13;;;;;;;4.00;3.70;;;;;;;11.40;100.00;95562.44;7401356;19;20404;-91
2023/08/05 05:29:43;;;;;;;5.10;4.60;;;;;;;12.58;100.00;95722.41;7400562;19;20395;-91
2023/08/05 05:32:10;;;;;;;5.13;4.67;;;;;;;11.98;100.00;95626.69;7399203;19;20424;-91
2023/08/05 05:34:37;;;;;;;6.10;5.60;;;;;;;12.56;100.00;95702.66;7398952;19;20385;-92
2023/08/05 05:37:04;;;;;;;5.80;5.30;;;;;;;13.09;100.00;95766.41;7400963;19;20452;-91
2023/08/05 05:39:32;;;;;;;6.20;4.60;;;;;;;12.98;100.00;95753.00;7397881;19;20403;-91
2023/08/05 05:41:59;;;;;;;4.40;4.00;;;;;;;13.37;100.00;95796.09;7398928;19;20420;-91
2023/08/05 05:44:27;;;;;;;5.67;4.87;;;;;;;13.36;100.00;95769.91;7398341;19;20381;-92
2023/08/05 05:46:55;;;;;;;5.20;4.73;;;;;;;13.62;100.00;95799.09;7408990;19;20396;-91
2023/08/05 05:49:22;;;;;;;5.67;5.20;;;;;;;13.40;100.00;95749.47;7406399;19;20376;-91
2023/08/05 05:51:49;;;;;;;5.10;4.70;;;;;;;13.22;100.00;95693.44;7404703;19;20476;-92
2023/08/05 05:54:16;;;;;;;6.20;5.60;;;;;;;13.65;100.00;95784.34;7404199;19;20485;-91
2023/08/05 05:56:43;;;;;;;6.30;5.80;;;;;;;13.26;100.00;95688.97;7406006;19;20401;-91
2023/08/05 05:59:11;;;;;;;5.90;5.40;;;;;;;14.35;100.00;95848.28;7404765;19;20454;-92
2023/08/05 06:01:38;;;;;;;6.77;6.23;;;;;;;13.20;100.00;95666.50;7405272;19;20404;-91
2023/08/05 06:04:09;;;;;;;6.83;6.23;;;;;;;14.31;100.00;95871.41;7405021;19;20381;-91
2023/08/05 06:06:36;;;;;;;7.30;6.70;;;;;;;13.11;100.00;95682.66;7406998;19;20397;-91
2023/08/05 06:09:04;;;;;;;8.50;7.10;;;;;;;12.63;100.00;95607.28;7404885;19;20391;-92
2023/08/05 06:11:34;;;;;;;7.63;6.93;;;;;;;13.53;100.00;95734.84;7404730;19;20412;-91
2023/08/05 06:14:01;;;;;;;9.60;6.80;;;;;;;12.55;100.00;95585.19;7405430;19;20755;-91
2023/08/05 06:16:30;;;;;;;8.97;7.53;;;;;;;12.98;100.00;95644.19;7406169;19;20397;-90
2023/08/05 06:18:59;;;;;;;9.23;8.00;;;;;;;13.00;100.00;95660.50;7405566;19;20380;-91
2023/08/05 06:21:26;;;;;;;8.97;8.00;;;;;;;12.21;100.00;95539.25;7405214;19;20977;-91
2023/08/05 06:23:53;;;;;;;9.80;9.00;;;;;;;13.43;100.00;95732.81;7405104;19;20384;-91
2023/08/05 06:26:23;;;;;;;8.90;7.37;;;;;;;14.09;100.00;95835.03;7403759;19;20384;-91
2023/08/05 06:28:50;;;;;;;8.93;8.07;;;;;;;13.81;100.00;95795.56;7404593;19;20947;-91
2023/08/05 06:31:17;;;;;;;11.33;7.60;;;;;;;14.60;100.00;95904.47;7401599;19;20412;-91
2023/08/05 06:33:44;;;;;;;8.70;7.87;;;;;;;13.90;100.00;95796.84;7405340;19;20389;-91
2023/08/05 06:36:12;;;;;;;10.73;8.40;;;;;;;12.62;100.00;95573.94;7412179;19;20980;-90
2023/08/05 06:38:57;;;;;;;9.63;7.80;;;;;;;14.01;100.00;95766.94;7423405;19;20421;-91
2023/08/05 06:41:43;;;;;;;9.03;7.60;;;;;;;12.45;100.00;95585.06;7418856;19;20432;-92
2023/08/05 06:44:25;;;;;;;10.13;7.70;;;;;;;12.72;100.00;95587.38;7404890;19;20391;-92
2023/08/05 06:47:01;;;;;;;8.50;7.70;;;;;;;13.21;100.00;95662.72;7403884;19;20748;-90
2023/08/05 06:49:28;;;;;;;8.73;7.90;;;;;;;13.66;100.00;95735.41;7403280;19;20377;-90
2023/08/05 06:51:55;;;;;;;8.27;7.50;;;;;;;14.34;100.00;95833.44;7406863;19;20745;-90
2023/08/05 06:54:24;;;;;;;8.90;7.00;;;;;;;14.98;100.00;95914.03;7417886;19;20410;-91
2023/08/05 06:56:52;;;;;;;8.57;7.77;;;;;;;15.12;100.00;95913.41;7423409;19;20388;-90
2023/08/05 06:59:20;;;;;;;8.07;7.37;;;;;;;13.78;100.00;95705.94;7410313;19;20401;-91
2023/08/05 07:01:48;;;;;;;7.73;7.03;;;;;;;14.70;100.00;95824.00;7404359;19;20433;-91
2023/08/05 07:04:15;;;;;;;10.80;8.80;;;;;;;15.05;100.00;95868.06;7401457;19;20471;-91
2023/08/05 07:06:44;;;;;;;8.67;7.87;;;;;;;14.94;100.00;95851.22;7403717;19;20409;-91
2023/08/05 07:09:11;;;;;;;9.23;8.30;;;;;;;15.07;100.00;95871.13;7402750;19;20373;-91
2023/08/05 07:11:38;;;;;;;8.10;7.50;;;;;;;14.52;100.00;95819.59;7415130;19;20397;-90
2023/08/05 07:14:05;;;;;;;8.83;7.90;;;;;;;15.00;100.00;95874.50;7406633;19;20377;-91
2023/08/05 07:16:32;;;;;;;9.57;8.60;;;;;;;15.08;100.00;95873.41;7401340;19;20365;-91
2023/08/05 07:18:59;;;;;;;8.87;7.97;;;;;;;14.45;100.00;95807.78;7406113;19;20388;-90
2023/08/05 07:21:37;;;;;;;9.90;7.80;;;;;;;14.95;100.00;95864.16;7408882;19;20431;-91
2023/08/05 07:24:06;;;;;;;8.97;8.07;;;;;;;14.35;100.00;95757.84;7403386;19;21041;-91
2023/08/05 07:26:33;;;;;;;9.37;8.47;;;;;;;14.20;100.00;95730.34;7401682;19;20400;-91
2023/08/05 07:29:00;;;;;;;8.10;7.30;;;;;;;14.86;100.00;95796.41;7401806;19;20421;-90
2023/08/05 07:31:27;;;;;;;8.53;7.80;;;;;;;14.91;100.00;95774.75;7401458;19;20418;-91
2023/08/05 07:33:54;;;;;;;8.47;7.60;;;;;;;15.68;100.00;95891.09;7402217;19;20396;-91
2023/08/05 07:36:26;;;;;;;9.00;8.10;;;;;;;15.44;100.00;95857.75;7400751;19;20381;-91
2023/08/05 07:38:54;;;;;;;7.20;6.50;;;;;;;15.62;100.00;95866.69;7402562;19;20372;-91
2023/08/05 07:41:25;;;;;;;8.70;7.87;;;;;;;15.34;100.00;95848.53;7424630;19;20445;-90
2023/08/05 07:43:57;;;;;;;7.17;6.67;;;;;;;15.01;100.00;95790.06;7434798;19;20436;-90
2023/08/05 07:46:31;;;;;;;8.37;7.57;;;;;;;15.41;100.00;95876.38;7432890;19;20405;-90
2023/08/05 07:49:00;;;;;;;8.63;7.83;;;;;;;15.50;100.00;95850.97;7412233;19;20387;-90
2023/08/05 07:51:28;;;;;;;10.43;7.90;;;;;;;15.52;100.00;95893.22;7398938;19;20411;-91
2023/08/05 07:53:57;;;;;;;10.57;7.47;;;;;;;14.84;100.00;95794.09;7398515;19;20370;-92
2023/08/05 07:56:25;;;;;;;8.53;7.73;;;;;;;15.31;100.00;95824.53;7401107;19;20395;-92
2023/08/05 07:58:52;;;;;;;8.10;7.03;;;;;;;15.34;100.00;95829.88;7401103;19;20384;-92
2023/08/05 08:01:21;;;;;;;10.30;8.90;;;;;;;15.50;100.00;95827.00;7407904;19;20491;-92
2023/08/05 08:03:53;;;;;;;8.30;7.50;;;;;;;16.24;100.00;95912.03;7414348;19;20492;-91
2023/08/05 08:06:23;;;;;;;7.90;7.20;;;;;;;16.05;100.00;95888.31;7400959;19;20380;-92
2023/08/05 08:08:51;;;;;;;8.10;7.30;;;;;;;15.24;100.00;95729.38;7399104;19;20391;-92
2023/08/05 08:11:18;;;;;;;8.30;7.60;;;;;;;15.18;100.00;95714.88;7401185;19;20496;-92
2023/08/05 08:13:45;;;;;;;9.17;8.37;;;;;;;15.46;100.00;95746.25;7400664;19;21055;-92
2023/08/05 08:16:13;;;;;;;10.90;7.70;;;;;;;15.70;100.00;95792.88;7407511;19;20397;-92
2023/08/05 08:18:40;;;;;;;7.17;6.57;;;;;;;16.26;100.00;95872.41;7400552;19;20421;-91
2023/08/05 08:21:07;;;;;;;8.60;7.80;;;;;;;15.64;100.00;95795.13;7402750;19;20399;-92
2023/08/05 08:23:34;;;;;;;10.33;7.70;;;;;;;16.49;100.00;95912.16;7401216;19;20382;-91
2023/08/05 08:26:01;;;;;;;8.43;7.73;;;;;;;15.40;100.00;95754.97;7401966;19;20385;-92
2023/08/05 08:28:28;;;;;;;8.40;7.60;;;;;;;14.63;100.00;95605.75;7401868;19;20723;-92
2023/08/05 08:30:57;;;;;;;8.47;7.57;;;;;;;16.84;100.00;95926.84;7403470;19;20527;-91
2023/08/05 08:33:25;;;;;;;8.83;8.10;;;;;;;16.31;100.00;95868.63;7399751;19;20388;-92
2023/08/05 08:35:53;;;;;;;9.67;7.80;;;;;;;16.78;100.00;95901.63;7403909;19;20428;-92
2023/08/05 08:38:22;;;;;;;8.03;7.43;;;;;;;16.67;100.00;95885.56;7402367;19;20384;-92
2023/08/05 08:40:51;;;;;;;8.50;7.70;;;;;;;16.75;100.00;95889.03;7400553;19;20380;-92
2023/08/05 08:43:21;;;;;;;8.17;7.57;;;;;;;17.22;100.00;95913.94;7400176;19;20433;-92
2023/08/05 08:45:53;;;;;;;8.83;8.03;;;;;;;16.94;100.00;95882.59;7399062;19;20376;-92
2023/08/05 08:48:20;;;;;;;9.17;8.27;;;;;;;16.92;100.00;95837.59;7400974;19;20384;-92
2023/08/05 08:50:52;;;;;;;9.27;8.57;;;;;;;16.60;100.00;95789.44;7400562;19;20376;-92
2023/08/05 08:53:21;;;;;;;8.97;8.17;;;;;;;17.20;100.00;95916.25;7399486;19;20413;-92
2023/08/05 08:55:54;;;;;;;8.03;7.17;;;;;;;16.91;100.00;95918.84;7413017;19;20405;-92
2023/08/05 08:58:24;;;;;;;8.93;8.07;;;;;;;16.97;100.00;95919.25;7415374;19;20397;-92
2023/08/05 09:00:54;;;;;;;8.53;7.70;;;;;;;16.50;100.00;95900.34;7412513;19;20381;-91
2023/08/05 09:03:27;;;;;;;9.10;8.40;;;;;;;15.61;100.00;95785.19;7401665;19;20400;-91
2023/08/05 09:05:58;;;;;;;8.87;7.63;;;;;;;16.60;100.00;95928.25;7407164;19;20513;-92
2023/08/05 09:08:38;;;;;;;8.03;7.23;;;;;;;15.06;100.00;95696.53;7411748;19;20368;-91
2023/08/05 09:11:41;;;;;;;9.07;8.23;;;;;;;17.18;100.00;95948.69;7404729;19;20412;-91
2023/08/05 09:14:19;;;;;;;8.77;8.00;;;;;;;15.00;100.00;95677.47;7405063;19;20377;-91
2023/08/05 09:17:00;;;;;;;7.93;7.23;;;;;;;15.81;100.00;95760.94;7398166;19;20381;-91
2023/08/05 09:19:28;;;;;;;10.20;8.30;;;;;;;16.12;100.00;95818.22;7399769;19;20369;-91
2023/08/05 09:21:56;;;;;;;8.37;7.53;;;;;;;15.69;100.00;95775.34;7397327;19;20413;-92
2023/08/05 09:24:24;;;;;;;8.50;7.80;;;;;;;15.57;100.00;95698.34;7398512;19;20377;-92
2023/08/05 09:26:56;;;;;;;7.63;7.03;;;;;;;16.55;100.00;95851.19;7397442;19;20410;-92
2023/08/05 09:29:24;;;;;;;9.30;8.60;;;;;;;15.65;100.00;95689.28;7401314;19;20393;-92
2023/08/05 09:31:58;;;;;;;10.07;7.30;;;;;;;17.21;100.00;95915.88;7397988;19;20437;-92
2023/08/05 09:34:33;;;;;;;10.03;7.70;;;;;;;17.28;100.00;95915.13;7396137;19;20387;-92
2023/08/05 09:37:01;;;;;;;10.53;8.07;;;;;;;17.20;100.00;95865.47;7399174;19;20391;-92
2023/08/05 09:39:46;;;;;;;7.33;6.73;;;;;;;16.84;100.00;95878.78;7398248;19;20376;-92
2023/08/05 09:42:19;;;;;;;8.97;8.13;;;;;;;16.62;100.00;95850.44;7397984;19;20976;-91
2023/08/05 09:44:47;;;;;;;9.53;7.20;;;;;;;16.68;100.00;95825.69;7401914;19;20486;-92
2023/08/05 09:47:23;;;;;;;8.57;7.67;;;;;;;16.94;100.00;95824.59;7398613;19;20375;-93
2023/08/05 09:49:51;;;;;;;8.07;7.37;;;;;;;17.56;100.00;95901.03;7396354;19;20393;-93
2023/08/05 09:52:24;;;;;;;7.53;6.67;;;;;;;17.46;100.00;95869.69;7393648;19;20437;-92
2023/08/05 09:55:02;;;;;;;8.60;7.87;;;;;;;16.96;100.00;95774.28;7399929;19;20396;-92
2023/08/05 09:57:30;;;;;;;11.83;6.87;;;;;;;16.78;100.00;95758.22;7398761;19;20373;-92
2023/08/05 09:59:59;;;;;;;7.07;6.00;;;;;;;17.56;100.00;95896.44;7396858;19;20389;-93
2023/08/05 10:02:27;;;;;;;7.50;6.80;;;;;;;16.61;100.00;95782.97;7395995;19;20516;-93
2023/08/05 10:04:55;;;;;;;8.43;7.67;;;;;;;16.31;100.00;95724.56;7399782;19;20400;-93
2023/08/05 10:07:25;;;;;;;7.03;6.47;;;;;;;16.97;100.00;95810.53;7397770;19;20393;-93
2023/08/05 10:09:53;;;;;;;7.87;7.07;;;;;;;15.55;100.00;95604.72;7403406;19;20897;-93
2023/08/05 10:12:24;;;;;;;7.00;6.30;;;;;;;16.60;100.00;95770.00;7399624;19;20960;-93
2023/08/05 10:14:54;;;;;;;6.87;6.23;;;;;;;16.81;100.00;95800.16;7404833;19;20472;-93
2023/08/05 10:17:23;;;;;;;9.43;6.23;;;;;;;16.18;100.00;95683.38;7403803;19;20369;-92
2023/08/05 10:19:51;;;;;;;7.33;5.70;;;;;;;16.54;100.00;95764.25;7419070;19;20385;-92
2023/08/05 10:22:23;;;;;;;7.20;6.50;;;;;;;16.48;100.00;95753.19;7420984;19;20435;-92
2023/08/05 10:24:54;;;;;;;7.23;6.40;;;;;;;17.99;100.00;95885.75;7421612;19;20394;-92
2023/08/05 10:27:42;;;;;;;6.60;6.10;;;;;;;17.17;100.00;95775.41;7412582;19;20418;-93
2023/08/05 10:30:13;;;;;;;9.57;6.70;;;;;;;16.77;100.00;95740.66;7398801;19;20793;-93
2023/08/05 10:33:04;;;;;;;7.03;6.33;;;;;;;16.73;100.00;95689.19;7410592;19;20429;-93
2023/08/05 10:35:39;;;;;;;8.30;7.03;;;;;;;16.54;100.00;95716.97;7410279;19;20384;-92
2023/08/05 10:38:14;;;;;;;6.83;6.03;;;;;;;17.30;100.00;95816.63;7406500;19;20365;-92
2023/08/05 10:40:49;;;;;;;7.20;6.70;;;;;;;16.81;100.00;95754.00;7411442;19;20397;-92
2023/08/05 10:43:42;;;;;;;7.53;6.73;;;;;;;18.02;100.00;95867.00;7410657;19;20430;-92
2023/08/05 10:46:13;;;;;;;6.97;6.40;;;;;;;16.55;100.00;95729.16;7408017;19;20846;-93
2023/08/05 10:48:43;;;;;;;6.80;6.20;;;;;;;16.54;100.00;95745.56;7405012;19;20377;-93
2023/08/05 10:51:17;;;;;;;6.70;6.20;;;;;;;16.92;100.00;95794.09;7402946;19;20924;-93
2023/08/05 10:53:58;;;;;;;8.40;6.10;;;;;;;16.31;100.00;95708.56;7405148;19;20401;-92
2023/08/05 10:56:33;;;;;;;5.73;5.33;;;;;;;17.02;100.00;95806.69;7404684;19;20385;-92
2023/08/05 10:59:04;;;;;;;6.17;5.77;;;;;;;17.11;100.00;95778.47;7402455;19;20409;-93
2023/08/05 11:01:57;;;;;;;7.23;6.30;;;;;;;17.70;100.00;95855.59;7402887;19;20416;-93
2023/08/05 11:04:30;;;;;;;6.53;5.93;;;;;;;17.27;100.00;95838.78;7403310;19;20369;-92
2023/08/05 11:07:02;;;;;;;6.73;6.13;;;;;;;16.71;100.00;95752.88;7404215;19;20380;-92
2023/08/05 11:09:33;;;;;;;7.57;6.47;;;;;;;16.46;100.00;95701.34;7409333;19;20388;-92
2023/08/05 11:12:00;;;;;;;6.30;5.77;;;;;;;16.67;100.00;95752.09;7402626;19;20911;-93
2023/08/05 11:14:28;;;;;;;6.73;6.23;;;;;;;16.94;100.00;95797.13;7405067;19;20404;-92
2023/08/05 11:17:07;;;;;;;6.60;6.00;;;;;;;16.38;100.00;95745.16;7403073;19;20952;-93
2023/08/05 11:19:56;;;;;;;11.23;9.83;;;;;;;16.94;100.00;95829.94;7414224;19;20397;-93
2023/08/05 11:22:30;;;;;;;8.13;7.43;;;;;;;15.69;100.00;95639.44;7413592;19;20404;-93
2023/08/05 11:25:59;;;;;;;6.87;6.37;;;;;;;15.16;100.00;95589.31;7417125;19;20385;-92
2023/08/05 11:28:29;;;;;;;6.70;6.20;;;;;;;14.52;100.00;95498.50;7407140;19;20393;-92
2023/08/05 11:31:00;;;;;;;6.47;5.97;;;;;;;16.14;100.00;95752.69;7403071;19;20403;-93
2023/08/05 11:33:28;;;;;;;6.70;6.27;;;;;;;14.57;100.00;95524.75;7404902;19;20452;-92
2023/08/05 11:36:00;;;;;;;7.70;7.00;;;;;;;15.74;100.00;95696.94;7399677;19;20976;-93
2023/08/05 11:38:28;;;;;;;7.03;6.43;;;;;;;15.33;100.00;95638.47;7401059;19;20397;-91
2023/08/05 11:40:59;;;;;;;7.50;6.80;;;;;;;15.58;100.00;95674.00;7400450;19;20401;-91
2023/08/05 11:43:26;;;;;;;5.40;5.10;;;;;;;14.68;100.00;95546.84;7401770;19;20380;-91
2023/08/05 11:45:54;;;;;;;7.10;6.60;;;;;;;15.38;100.00;95668.19;7399737;19;20752;-91
2023/08/05 11:48:26;;;;;;;7.17;6.53;;;;;;;15.43;100.00;95671.63;7401477;19;20809;-91
2023/08/05 11:51:01;;;;;;;6.73;6.10;;;;;;;14.89;100.00;95590.69;7399989;19;20925;-91
2023/08/05 11:53:29;;;;;;;7.57;6.40;;;;;;;15.10;100.00;95601.47;7399882;19;20388;-91
2023/08/05 11:55:56;;;;;;;7.60;6.90;;;;;;;15.81;100.00;95713.72;7399822;19;20389;-91